Weather History for Statesville, NC

Change the Weather History Date:

Thursday, February 21, 2013

  Actual Average (KHKY) Record (KHKY)
Temperature  
Mean Temperature 38 °F -  
Max Temperature 54 °F 55 °F 73 °F (1986)
Min Temperature 23 °F 32 °F 17 °F (1959)
Degree Days  
Heating Degree Days 26    
Moisture  
Dew Point 16 °F    
Average Humidity 41    
Maximum Humidity 80    
Minimum Humidity 18    
Precipitation  
Precipitation 0.01 in - - ()
Sea Level Pressure  
Sea Level Pressure 30.15 in    
Wind  
Wind Speed 2 mph (East)    
Max Wind Speed 7 mph    
Max Gust Speed -    
Visibility 10 miles    
Events Rain    
Averages and records for this station are not official NWS values.
T = Trace of Precipitation, MM = Missing Value Source: NWS Daily Summary

Daily Weather History Graph

Daily Weather History Graph

Search for Another Location

Airport:

Trip Planner

Search our weather history database for the weather conditions in past years. The results will help you decide how hot, cold, wet, or windy it might be!

Date:

Astronomy

Feb. 21, 2013 Rise Set
Actual Time 7:03 AM EST 6:11 PM EST
Civil Twilight 6:37 AM EST 6:37 PM EST
Nautical Twilight 6:07 AM EST 7:07 PM EST
Astronomical Twilight 5:38 AM EST 7:37 PM EST
Moon 2:30 PM EST (2/21) 4:01 AM EST (2/21)
Length of Visible Light 11h 59m
Length of Day
11h 08m
Waxing Gibbous, 83% of the Moon is Illuminated
Feb 21
Waxing Gibbous
Feb 25
Full
Mar 4
Last Quarter
Mar 11
New
Mar 19
First Quarter

Hourly Weather History & Observations

Time (EST) Temp. Windchill Dew Point Humidity Pressure Visibility Wind Dir Wind Speed Gust Speed Precip Events Conditions
12:18 AM 33.8 °F 29.6 °F 8.6 °F 35% 30.10 in 10.0 mi North 4.6 mph - N/A   Clear
12:37 AM 33.8 °F 30.8 °F 8.6 °F 35% 30.10 in 10.0 mi NE 3.5 mph - N/A   Clear
12:57 AM 32.0 °F 28.7 °F 10.4 °F 41% 30.11 in 10.0 mi NE 3.5 mph - N/A   Clear
1:17 AM 32.0 °F 28.7 °F 10.4 °F 41% 30.11 in 10.0 mi NE 3.5 mph - N/A   Clear
1:37 AM 26.6 °F - 14.0 °F 59% 30.12 in 10.0 mi Calm Calm - N/A   Clear
1:59 AM 28.4 °F - 10.4 °F 47% 30.11 in 10.0 mi Calm Calm - N/A   Clear
2:17 AM 28.4 °F - 12.2 °F 51% 30.12 in 10.0 mi Calm Calm - N/A   Clear
2:37 AM 28.4 °F - 12.2 °F 51% 30.12 in 10.0 mi Calm Calm - N/A   Clear
2:57 AM 30.2 °F 26.7 °F 12.2 °F 47% 30.12 in 10.0 mi NNE 3.5 mph - N/A   Clear
3:18 AM 26.6 °F 22.6 °F 15.8 °F 64% 30.12 in 10.0 mi NE 3.5 mph - N/A   Clear
3:37 AM 24.8 °F - 14.0 °F 64% 30.12 in 10.0 mi Calm Calm - N/A   Clear
3:59 AM 26.6 °F 22.6 °F 15.8 °F 64% 30.13 in 10.0 mi ENE 3.5 mph - N/A   Clear
4:17 AM 26.6 °F 22.6 °F 15.8 °F 64% 30.13 in 10.0 mi ENE 3.5 mph - N/A   Clear
4:39 AM 28.4 °F - 15.8 °F 59% 30.13 in 10.0 mi Calm Calm - N/A   Clear
4:57 AM 26.6 °F - 15.8 °F 64% 30.14 in 10.0 mi Calm Calm - N/A   Clear
5:17 AM 26.6 °F - 15.8 °F 64% 30.14 in 10.0 mi Calm Calm - N/A   Clear
5:37 AM 24.8 °F - 15.8 °F 69% 30.14 in 10.0 mi Calm Calm - N/A   Clear
6:17 AM 26.6 °F 22.6 °F 15.8 °F 64% 30.15 in 10.0 mi NNE 3.5 mph - N/A   Clear
6:37 AM 24.8 °F - 15.8 °F 69% 30.17 in 10.0 mi Calm Calm - N/A   Clear
6:58 AM 24.8 °F - 15.8 °F 69% 30.17 in 10.0 mi Calm Calm - N/A   Clear
7:17 AM 24.8 °F - 15.8 °F 69% 30.17 in 10.0 mi Calm Calm - N/A   Clear
7:37 AM 23.0 °F - 15.8 °F 74% 30.18 in 10.0 mi Calm Calm - N/A   Clear
7:57 AM 24.8 °F - 17.6 °F 74% 30.19 in 10.0 mi Calm Calm - N/A   Clear
8:17 AM 28.4 °F - 19.4 °F 69% 30.20 in 10.0 mi Calm Calm - N/A   Clear
8:37 AM 33.8 °F - 17.6 °F 52% 30.20 in 10.0 mi Calm Calm - N/A   Clear
8:57 AM 33.8 °F - 17.6 °F 52% 30.21 in 10.0 mi Calm Calm - N/A   Clear
9:15 AM 34.7 °F - 16.2 °F 47% 30.20 in 10.0 mi Calm Calm - N/A   Clear
9:17 AM 35.6 °F 32.8 °F 15.8 °F 44% 30.20 in 10.0 mi NE 3.5 mph - N/A   Clear
9:35 AM 35.6 °F - 15.8 °F 44% 30.20 in 10.0 mi Calm Calm - N/A   Clear
9:55 AM 37.0 °F - 15.6 °F 42% 30.20 in 10.0 mi Calm Calm - N/A   Clear
10:15 AM 39.0 °F - 13.8 °F 36% 30.20 in 10.0 mi Calm Calm - N/A   Clear
10:35 AM 39.9 °F - 15.4 °F 37% 30.20 in 10.0 mi Calm Calm - N/A   Clear
10:55 AM 41.7 °F 39.8 °F 15.1 °F 34% 30.21 in 10.0 mi SSW 3.5 mph - N/A   Clear
11:15 AM 43.5 °F 40.9 °F 14.5 °F 31% 30.19 in 10.0 mi South 4.6 mph - N/A   Clear
11:35 AM 44.6 °F 43.1 °F 14.5 °F 30% 30.18 in 10.0 mi West 3.5 mph - N/A   Clear
11:55 AM 46.9 °F - 15.4 °F 28% 30.17 in 10.0 mi West 3.5 mph - N/A   Clear
12:15 PM 47.3 °F - 11.8 °F 24% 30.16 in 10.0 mi SSW 3.5 mph - N/A   Clear
12:35 PM 48.0 °F - 11.7 °F 23% 30.14 in 10.0 mi SSW 6.9 mph - N/A   Clear
12:55 PM 49.6 °F - 14.9 °F 25% 30.13 in 10.0 mi SW 4.6 mph - N/A   Clear
1:15 PM 50.2 °F - 12.0 °F 22% 30.11 in 10.0 mi Calm Calm - N/A   Clear
1:35 PM 51.6 °F - 15.1 °F 23% 30.11 in 10.0 mi Calm Calm - N/A   Clear
1:55 PM 52.0 °F - 13.3 °F 21% 30.10 in 10.0 mi Calm Calm - N/A   Clear
2:15 PM 52.7 °F - 15.1 °F 23% 30.09 in 10.0 mi Calm Calm - N/A   Clear
2:35 PM 54.0 °F - 12.6 °F 19% 30.09 in 10.0 mi Calm Calm - N/A   Clear
2:55 PM 53.8 °F - 11.3 °F 18% 30.09 in 10.0 mi Calm Calm - N/A   Unknown
3:15 PM 54.9 °F - 14.2 °F 20% 30.09 in 10.0 mi Calm Calm - N/A   Unknown
3:35 PM 54.1 °F - 12.9 °F 19% 30.10 in 10.0 mi East 3.5 mph - N/A   Clear
3:55 PM 54.0 °F - 14.9 °F 21% 30.09 in 10.0 mi SSE 3.5 mph - N/A   Clear
4:15 PM 54.1 °F - 14.4 °F 21% 30.11 in 10.0 mi Calm Calm - N/A   Unknown
4:35 PM 53.8 °F - 16.0 °F 23% 30.11 in 10.0 mi SSE 4.6 mph - N/A   Unknown
4:55 PM 53.2 °F - 16.2 °F 23% 30.10 in 10.0 mi ESE 3.5 mph - N/A   Clear
5:15 PM 52.7 °F - 17.6 °F 25% 30.09 in 10.0 mi East 4.6 mph - N/A   Clear
5:35 PM 52.2 °F - 16.9 °F 25% 30.10 in 10.0 mi Calm Calm - N/A   Clear
5:55 PM 50.2 °F - 19.2 °F 29% 30.10 in 10.0 mi East 3.5 mph - N/A   Clear
6:15 PM 50.2 °F - 18.7 °F 29% 30.12 in 10.0 mi Calm Calm - N/A   Clear
6:35 PM 49.5 °F - 19.0 °F 30% 30.13 in 10.0 mi East 3.5 mph - N/A   Clear
6:55 PM 49.1 °F - 19.2 °F 31% 30.13 in 10.0 mi ENE 3.5 mph - N/A   Clear
7:15 PM 49.3 °F - 18.0 °F 29% 30.13 in 10.0 mi East 3.5 mph - N/A   Clear
7:35 PM 48.9 °F - 18.1 °F 30% 30.13 in 10.0 mi ENE 4.6 mph - N/A   Clear
7:55 PM 47.5 °F - 19.4 °F 33% 30.12 in 10.0 mi East 5.8 mph - N/A   Clear
8:15 PM 47.3 °F - 18.9 °F 32% 30.13 in 10.0 mi East 3.5 mph - N/A   Clear
8:35 PM 47.3 °F - 18.7 °F 32% 30.13 in 10.0 mi ENE 4.6 mph - N/A   Clear
8:55 PM 47.3 °F - 17.6 °F 31% 30.15 in 10.0 mi Calm Calm - N/A   Clear
9:15 PM 46.2 °F 45.0 °F 18.9 °F 34% 30.15 in 10.0 mi NE 3.5 mph - N/A   Clear
9:35 PM 45.7 °F - 19.0 °F 35% 30.16 in 10.0 mi Calm Calm - N/A   Clear
10:15 PM 44.8 °F - 19.9 °F 37% 30.21 in 10.0 mi Calm Calm - N/A   Mostly Cloudy
10:35 PM 45.9 °F 44.6 °F 18.5 °F 34% 30.22 in 10.0 mi SSW 3.5 mph - N/A   Mostly Cloudy
10:55 PM 45.7 °F 44.4 °F 22.3 °F 40% 30.19 in 10.0 mi East 3.5 mph - N/A Rain Light Rain
11:15 PM 45.1 °F - 23.5 °F 43% 30.23 in 10.0 mi Calm Calm - N/A Rain Rain
11:35 PM 43.5 °F 41.9 °F 25.3 °F 49% 30.24 in 10.0 mi NE 3.5 mph - N/A Rain Rain
11:55 PM 38.8 °F - 33.1 °F 80% 30.27 in 10.0 mi Calm Calm - 0.01 in Rain Light Rain